sensor_id;sensor_type;location;lat;lon;timestamp;P1;durP1;ratioP1;P2;durP2;ratioP2
39502;SDS011;26970;49.900;10.774;2023-08-24T00:00:18;9.27;;;3.20;;
39502;SDS011;26970;49.900;10.774;2023-08-24T00:02:44;8.48;;;3.53;;
39502;SDS011;26970;49.900;10.774;2023-08-24T00:05:10;6.88;;;3.45;;
39502;SDS011;26970;49.900;10.774;2023-08-24T00:07:35;7.95;;;3.35;;
39502;SDS011;26970;49.900;10.774;2023-08-24T00:10:01;8.82;;;3.85;;
39502;SDS011;26970;49.900;10.774;2023-08-24T00:12:29;8.25;;;3.42;;
39502;SDS011;26970;49.900;10.774;2023-08-24T00:14:55;6.63;;;3.38;;
39502;SDS011;26970;49.900;10.774;2023-08-24T00:17:20;8.98;;;3.70;;
39502;SDS011;26970;49.900;10.774;2023-08-24T00:19:47;6.45;;;3.20;;
39502;SDS011;26970;49.900;10.774;2023-08-24T00:22:13;7.97;;;3.63;;
39502;SDS011;26970;49.900;10.774;2023-08-24T00:24:39;5.85;;;3.50;;
39502;SDS011;26970;49.900;10.774;2023-08-24T00:27:04;8.85;;;3.88;;
39502;SDS011;26970;49.900;10.774;2023-08-24T00:29:30;8.68;;;3.58;;
39502;SDS011;26970;49.900;10.774;2023-08-24T00:31:55;10.48;;;3.70;;
39502;SDS011;26970;49.900;10.774;2023-08-24T00:34:22;6.15;;;3.30;;
39502;SDS011;26970;49.900;10.774;2023-08-24T00:36:48;7.50;;;3.92;;
39502;SDS011;26970;49.900;10.774;2023-08-24T00:39:13;7.13;;;3.70;;
39502;SDS011;26970;49.900;10.774;2023-08-24T00:41:40;10.98;;;3.85;;
39502;SDS011;26970;49.900;10.774;2023-08-24T00:44:06;10.00;;;3.78;;
39502;SDS011;26970;49.900;10.774;2023-08-24T00:46:32;9.95;;;3.75;;
39502;SDS011;26970;49.900;10.774;2023-08-24T00:48:59;6.97;;;3.67;;
39502;SDS011;26970;49.900;10.774;2023-08-24T00:51:25;8.20;;;3.58;;
39502;SDS011;26970;49.900;10.774;2023-08-24T00:53:50;10.27;;;3.63;;
39502;SDS011;26970;49.900;10.774;2023-08-24T00:56:17;14.30;;;3.95;;
39502;SDS011;26970;49.900;10.774;2023-08-24T00:58:45;7.10;;;4.13;;
39502;SDS011;26970;49.900;10.774;2023-08-24T01:01:12;7.00;;;3.42;;
39502;SDS011;26970;49.900;10.774;2023-08-24T01:03:38;10.38;;;3.65;;
39502;SDS011;26970;49.900;10.774;2023-08-24T01:06:03;5.97;;;3.47;;
39502;SDS011;26970;49.900;10.774;2023-08-24T01:08:29;8.23;;;3.63;;
39502;SDS011;26970;49.900;10.774;2023-08-24T01:16:39;5.95;;;3.63;;
39502;SDS011;26970;49.900;10.774;2023-08-24T01:19:10;7.15;;;3.72;;
39502;SDS011;26970;49.900;10.774;2023-08-24T01:22:08;4.82;;;3.72;;
39502;SDS011;26970;49.900;10.774;2023-08-24T01:24:45;5.40;;;3.58;;
39502;SDS011;26970;49.900;10.774;2023-08-24T01:27:17;6.03;;;3.70;;
39502;SDS011;26970;49.900;10.774;2023-08-24T01:29:44;5.47;;;4.00;;
39502;SDS011;26970;49.900;10.774;2023-08-24T01:32:10;6.93;;;4.13;;
39502;SDS011;26970;49.900;10.774;2023-08-24T01:34:39;6.70;;;4.28;;
39502;SDS011;26970;49.900;10.774;2023-08-24T01:37:05;11.45;;;4.00;;
39502;SDS011;26970;49.900;10.774;2023-08-24T01:39:39;8.90;;;3.97;;
39502;SDS011;26970;49.900;10.774;2023-08-24T01:42:11;7.60;;;4.05;;
39502;SDS011;26970;49.900;10.774;2023-08-24T01:44:42;8.93;;;4.70;;
39502;SDS011;26970;49.900;10.774;2023-08-24T01:47:12;7.80;;;4.00;;
39502;SDS011;26970;49.900;10.774;2023-08-24T01:49:38;6.53;;;3.72;;
39502;SDS011;26970;49.900;10.774;2023-08-24T01:52:05;9.70;;;4.00;;
39502;SDS011;26970;49.900;10.774;2023-08-24T01:54:32;8.40;;;4.10;;
39502;SDS011;26970;49.900;10.774;2023-08-24T01:56:58;8.20;;;4.32;;
39502;SDS011;26970;49.900;10.774;2023-08-24T01:59:23;7.20;;;3.70;;
39502;SDS011;26970;49.900;10.774;2023-08-24T02:01:49;7.18;;;3.85;;
39502;SDS011;26970;49.900;10.774;2023-08-24T02:04:14;5.95;;;3.75;;
39502;SDS011;26970;49.900;10.774;2023-08-24T02:06:40;6.32;;;4.32;;
39502;SDS011;26970;49.900;10.774;2023-08-24T02:09:05;4.88;;;4.10;;
39502;SDS011;26970;49.900;10.774;2023-08-24T02:11:31;9.45;;;4.10;;
39502;SDS011;26970;49.900;10.774;2023-08-24T02:13:56;10.52;;;4.82;;
39502;SDS011;26970;49.900;10.774;2023-08-24T02:16:22;7.03;;;4.13;;
39502;SDS011;26970;49.900;10.774;2023-08-24T02:18:47;8.70;;;4.25;;
39502;SDS011;26970;49.900;10.774;2023-08-24T02:21:13;8.15;;;4.60;;
39502;SDS011;26970;49.900;10.774;2023-08-24T02:23:40;7.63;;;4.45;;
39502;SDS011;26970;49.900;10.774;2023-08-24T02:26:06;7.65;;;4.32;;
39502;SDS011;26970;49.900;10.774;2023-08-24T02:28:32;7.15;;;4.00;;
39502;SDS011;26970;49.900;10.774;2023-08-24T02:31:01;8.55;;;4.07;;
39502;SDS011;26970;49.900;10.774;2023-08-24T02:33:28;8.35;;;4.15;;
39502;SDS011;26970;49.900;10.774;2023-08-24T02:35:55;5.22;;;4.05;;
39502;SDS011;26970;49.900;10.774;2023-08-24T02:38:22;7.75;;;4.22;;
39502;SDS011;26970;49.900;10.774;2023-08-24T02:40:48;6.78;;;4.15;;
39502;SDS011;26970;49.900;10.774;2023-08-24T02:43:14;9.95;;;4.70;;
39502;SDS011;26970;49.900;10.774;2023-08-24T02:45:39;7.30;;;4.50;;
39502;SDS011;26970;49.900;10.774;2023-08-24T02:48:05;7.85;;;4.75;;
39502;SDS011;26970;49.900;10.774;2023-08-24T02:50:31;7.93;;;4.60;;
39502;SDS011;26970;49.900;10.774;2023-08-24T02:52:56;7.03;;;4.35;;
39502;SDS011;26970;49.900;10.774;2023-08-24T02:55:23;9.02;;;4.85;;
39502;SDS011;26970;49.900;10.774;2023-08-24T02:57:49;7.90;;;4.70;;
39502;SDS011;26970;49.900;10.774;2023-08-24T03:00:15;10.43;;;4.93;;
39502;SDS011;26970;49.900;10.774;2023-08-24T03:02:40;7.90;;;4.28;;
39502;SDS011;26970;49.900;10.774;2023-08-24T03:05:06;5.93;;;4.53;;
39502;SDS011;26970;49.900;10.774;2023-08-24T03:07:32;10.43;;;5.53;;
39502;SDS011;26970;49.900;10.774;2023-08-24T03:09:58;7.18;;;5.28;;
39502;SDS011;26970;49.900;10.774;2023-08-24T03:12:23;8.40;;;4.97;;
39502;SDS011;26970;49.900;10.774;2023-08-24T03:14:52;10.40;;;5.32;;
39502;SDS011;26970;49.900;10.774;2023-08-24T03:17:19;9.00;;;5.28;;
39502;SDS011;26970;49.900;10.774;2023-08-24T03:19:45;6.32;;;4.53;;
39502;SDS011;26970;49.900;10.774;2023-08-24T03:22:11;6.70;;;4.82;;
39502;SDS011;26970;49.900;10.774;2023-08-24T03:24:37;7.55;;;4.82;;
39502;SDS011;26970;49.900;10.774;2023-08-24T03:27:02;8.43;;;5.35;;
39502;SDS011;26970;49.900;10.774;2023-08-24T03:29:28;8.27;;;4.95;;
39502;SDS011;26970;49.900;10.774;2023-08-24T03:31:53;11.55;;;5.68;;
39502;SDS011;26970;49.900;10.774;2023-08-24T03:34:19;8.75;;;4.78;;
39502;SDS011;26970;49.900;10.774;2023-08-24T03:36:45;11.65;;;4.90;;
39502;SDS011;26970;49.900;10.774;2023-08-24T03:39:12;6.80;;;4.65;;
39502;SDS011;26970;49.900;10.774;2023-08-24T03:41:39;6.90;;;5.00;;
39502;SDS011;26970;49.900;10.774;2023-08-24T03:44:05;10.77;;;4.85;;
39502;SDS011;26970;49.900;10.774;2023-08-24T03:46:30;8.75;;;4.93;;
39502;SDS011;26970;49.900;10.774;2023-08-24T03:48:56;9.25;;;5.63;;
39502;SDS011;26970;49.900;10.774;2023-08-24T03:51:21;7.55;;;5.00;;
39502;SDS011;26970;49.900;10.774;2023-08-24T03:53:47;8.48;;;5.60;;
39502;SDS011;26970;49.900;10.774;2023-08-24T03:56:12;9.25;;;5.45;;
39502;SDS011;26970;49.900;10.774;2023-08-24T03:58:38;9.65;;;5.63;;
39502;SDS011;26970;49.900;10.774;2023-08-24T04:01:03;8.45;;;5.30;;
39502;SDS011;26970;49.900;10.774;2023-08-24T04:03:30;7.50;;;5.70;;
39502;SDS011;26970;49.900;10.774;2023-08-24T04:05:56;9.45;;;5.75;;
39502;SDS011;26970;49.900;10.774;2023-08-24T04:08:21;10.40;;;5.90;;
39502;SDS011;26970;49.900;10.774;2023-08-24T04:10:47;9.68;;;6.43;;
39502;SDS011;26970;49.900;10.774;2023-08-24T04:13:12;8.15;;;5.78;;
39502;SDS011;26970;49.900;10.774;2023-08-24T04:15:38;10.75;;;6.50;;
39502;SDS011;26970;49.900;10.774;2023-08-24T04:18:03;6.85;;;5.68;;
39502;SDS011;26970;49.900;10.774;2023-08-24T04:20:29;8.13;;;5.75;;
39502;SDS011;26970;49.900;10.774;2023-08-24T04:22:54;6.53;;;5.68;;
39502;SDS011;26970;49.900;10.774;2023-08-24T04:25:21;9.00;;;6.30;;
39502;SDS011;26970;49.900;10.774;2023-08-24T04:27:46;9.57;;;6.63;;
39502;SDS011;26970;49.900;10.774;2023-08-24T04:30:12;9.55;;;6.85;;
39502;SDS011;26970;49.900;10.774;2023-08-24T04:32:39;9.70;;;6.53;;
39502;SDS011;26970;49.900;10.774;2023-08-24T04:35:04;8.32;;;6.50;;
39502;SDS011;26970;49.900;10.774;2023-08-24T04:37:30;10.60;;;6.75;;
39502;SDS011;26970;49.900;10.774;2023-08-24T04:39:56;12.57;;;6.57;;
39502;SDS011;26970;49.900;10.774;2023-08-24T04:42:21;9.48;;;6.82;;
39502;SDS011;26970;49.900;10.774;2023-08-24T04:44:47;8.18;;;6.72;;
39502;SDS011;26970;49.900;10.774;2023-08-24T04:47:12;11.00;;;6.38;;
39502;SDS011;26970;49.900;10.774;2023-08-24T04:49:38;10.00;;;6.70;;
39502;SDS011;26970;49.900;10.774;2023-08-24T04:52:03;10.93;;;6.25;;
39502;SDS011;26970;49.900;10.774;2023-08-24T04:54:29;13.23;;;6.60;;
39502;SDS011;26970;49.900;10.774;2023-08-24T04:56:55;7.32;;;5.68;;
39502;SDS011;26970;49.900;10.774;2023-08-24T04:59:21;7.88;;;5.60;;
39502;SDS011;26970;49.900;10.774;2023-08-24T05:01:46;7.15;;;5.13;;
39502;SDS011;26970;49.900;10.774;2023-08-24T05:04:12;8.30;;;5.50;;
39502;SDS011;26970;49.900;10.774;2023-08-24T05:06:37;8.30;;;4.97;;
39502;SDS011;26970;49.900;10.774;2023-08-24T05:09:04;8.52;;;5.25;;
39502;SDS011;26970;49.900;10.774;2023-08-24T05:11:29;7.65;;;5.68;;
39502;SDS011;26970;49.900;10.774;2023-08-24T05:13:55;8.18;;;6.25;;
39502;SDS011;26970;49.900;10.774;2023-08-24T05:16:21;9.75;;;6.30;;
39502;SDS011;26970;49.900;10.774;2023-08-24T05:18:46;12.68;;;7.18;;
39502;SDS011;26970;49.900;10.774;2023-08-24T05:21:12;11.15;;;6.95;;
39502;SDS011;26970;49.900;10.774;2023-08-24T05:23:37;7.88;;;6.53;;
39502;SDS011;26970;49.900;10.774;2023-08-24T05:26:03;8.25;;;6.60;;
39502;SDS011;26970;49.900;10.774;2023-08-24T05:28:29;12.40;;;7.43;;
39502;SDS011;26970;49.900;10.774;2023-08-24T05:30:56;9.93;;;6.85;;
39502;SDS011;26970;49.900;10.774;2023-08-24T05:33:22;14.18;;;7.05;;
39502;SDS011;26970;49.900;10.774;2023-08-24T05:35:48;14.32;;;6.45;;
39502;SDS011;26970;49.900;10.774;2023-08-24T05:38:15;10.23;;;6.35;;
39502;SDS011;26970;49.900;10.774;2023-08-24T05:40:46;9.02;;;6.38;;
39502;SDS011;26970;49.900;10.774;2023-08-24T05:43:13;8.68;;;6.70;;
39502;SDS011;26970;49.900;10.774;2023-08-24T05:45:39;12.77;;;6.60;;
39502;SDS011;26970;49.900;10.774;2023-08-24T05:48:05;9.63;;;6.57;;
39502;SDS011;26970;49.900;10.774;2023-08-24T05:50:32;8.65;;;6.75;;
39502;SDS011;26970;49.900;10.774;2023-08-24T05:52:57;12.10;;;6.38;;
39502;SDS011;26970;49.900;10.774;2023-08-24T05:55:23;8.95;;;7.60;;
39502;SDS011;26970;49.900;10.774;2023-08-24T05:57:48;11.02;;;6.93;;
39502;SDS011;26970;49.900;10.774;2023-08-24T06:00:14;9.98;;;6.63;;
39502;SDS011;26970;49.900;10.774;2023-08-24T06:02:40;10.35;;;6.88;;
39502;SDS011;26970;49.900;10.774;2023-08-24T06:05:06;8.50;;;6.97;;
39502;SDS011;26970;49.900;10.774;2023-08-24T06:07:32;8.40;;;6.63;;
39502;SDS011;26970;49.900;10.774;2023-08-24T06:09:58;10.93;;;7.20;;
39502;SDS011;26970;49.900;10.774;2023-08-24T06:12:24;10.98;;;6.95;;
39502;SDS011;26970;49.900;10.774;2023-08-24T06:14:50;8.77;;;7.20;;
39502;SDS011;26970;49.900;10.774;2023-08-24T06:17:15;9.07;;;6.85;;
39502;SDS011;26970;49.900;10.774;2023-08-24T06:19:42;14.73;;;7.18;;
39502;SDS011;26970;49.900;10.774;2023-08-24T06:22:08;11.15;;;7.50;;
39502;SDS011;26970;49.900;10.774;2023-08-24T06:24:34;10.65;;;7.25;;
39502;SDS011;26970;49.900;10.774;2023-08-24T06:27:00;9.57;;;7.22;;
39502;SDS011;26970;49.900;10.774;2023-08-24T06:29:27;9.57;;;7.05;;
39502;SDS011;26970;49.900;10.774;2023-08-24T06:31:53;11.23;;;7.70;;
39502;SDS011;26970;49.900;10.774;2023-08-24T06:34:19;14.32;;;7.47;;
39502;SDS011;26970;49.900;10.774;2023-08-24T06:36:45;12.23;;;7.40;;
39502;SDS011;26970;49.900;10.774;2023-08-24T06:39:12;13.02;;;6.63;;
39502;SDS011;26970;49.900;10.774;2023-08-24T06:41:38;11.88;;;5.93;;
39502;SDS011;26970;49.900;10.774;2023-08-24T06:44:03;8.95;;;6.18;;
39502;SDS011;26970;49.900;10.774;2023-08-24T06:46:29;9.32;;;6.03;;
39502;SDS011;26970;49.900;10.774;2023-08-24T06:48:54;8.52;;;4.90;;
39502;SDS011;26970;49.900;10.774;2023-08-24T06:51:20;11.27;;;5.15;;
39502;SDS011;26970;49.900;10.774;2023-08-24T06:53:46;9.30;;;5.18;;
39502;SDS011;26970;49.900;10.774;2023-08-24T06:56:14;6.82;;;5.03;;
39502;SDS011;26970;49.900;10.774;2023-08-24T06:58:43;7.72;;;5.50;;
39502;SDS011;26970;49.900;10.774;2023-08-24T07:01:10;8.32;;;5.40;;
39502;SDS011;26970;49.900;10.774;2023-08-24T07:03:36;8.98;;;5.00;;
39502;SDS011;26970;49.900;10.774;2023-08-24T07:06:02;11.68;;;4.95;;
39502;SDS011;26970;49.900;10.774;2023-08-24T07:08:28;8.95;;;5.30;;
39502;SDS011;26970;49.900;10.774;2023-08-24T07:10:53;7.80;;;5.72;;
39502;SDS011;26970;49.900;10.774;2023-08-24T07:13:19;8.07;;;5.20;;
39502;SDS011;26970;49.900;10.774;2023-08-24T07:15:44;7.63;;;5.00;;
39502;SDS011;26970;49.900;10.774;2023-08-24T07:18:10;10.55;;;4.95;;
39502;SDS011;26970;49.900;10.774;2023-08-24T07:20:36;7.57;;;5.10;;
39502;SDS011;26970;49.900;10.774;2023-08-24T07:23:02;9.35;;;5.05;;
39502;SDS011;26970;49.900;10.774;2023-08-24T07:25:28;11.05;;;5.10;;
39502;SDS011;26970;49.900;10.774;2023-08-24T07:27:53;14.02;;;5.07;;
39502;SDS011;26970;49.900;10.774;2023-08-24T07:30:23;5.97;;;4.72;;
39502;SDS011;26970;49.900;10.774;2023-08-24T07:32:55;6.22;;;4.55;;
39502;SDS011;26970;49.900;10.774;2023-08-24T07:35:21;7.65;;;5.00;;
39502;SDS011;26970;49.900;10.774;2023-08-24T07:37:49;8.07;;;4.18;;
39502;SDS011;26970;49.900;10.774;2023-08-24T07:40:15;5.45;;;3.95;;
39502;SDS011;26970;49.900;10.774;2023-08-24T07:42:47;11.07;;;4.63;;
39502;SDS011;26970;49.900;10.774;2023-08-24T07:45:16;8.70;;;4.07;;
39502;SDS011;26970;49.900;10.774;2023-08-24T07:47:42;8.52;;;4.18;;
39502;SDS011;26970;49.900;10.774;2023-08-24T07:50:08;9.52;;;4.75;;
39502;SDS011;26970;49.900;10.774;2023-08-24T07:52:35;8.52;;;5.00;;
39502;SDS011;26970;49.900;10.774;2023-08-24T07:55:02;7.95;;;4.47;;
39502;SDS011;26970;49.900;10.774;2023-08-24T07:57:29;7.93;;;5.22;;
39502;SDS011;26970;49.900;10.774;2023-08-24T07:59:56;8.95;;;4.50;;
39502;SDS011;26970;49.900;10.774;2023-08-24T08:02:22;9.50;;;4.53;;
39502;SDS011;26970;49.900;10.774;2023-08-24T08:04:48;10.00;;;4.72;;
39502;SDS011;26970;49.900;10.774;2023-08-24T08:07:13;8.10;;;4.95;;
39502;SDS011;26970;49.900;10.774;2023-08-24T08:09:39;12.73;;;4.50;;
39502;SDS011;26970;49.900;10.774;2023-08-24T08:12:05;9.35;;;4.78;;
39502;SDS011;26970;49.900;10.774;2023-08-24T08:14:31;10.55;;;4.80;;
39502;SDS011;26970;49.900;10.774;2023-08-24T08:16:56;7.35;;;4.35;;
39502;SDS011;26970;49.900;10.774;2023-08-24T08:19:22;8.43;;;4.90;;
39502;SDS011;26970;49.900;10.774;2023-08-24T08:21:50;9.68;;;5.05;;
39502;SDS011;26970;49.900;10.774;2023-08-24T08:24:16;6.93;;;5.00;;
39502;SDS011;26970;49.900;10.774;2023-08-24T08:26:41;7.85;;;4.57;;
39502;SDS011;26970;49.900;10.774;2023-08-24T08:29:07;6.18;;;4.40;;
39502;SDS011;26970;49.900;10.774;2023-08-24T08:31:32;8.93;;;4.40;;
39502;SDS011;26970;49.900;10.774;2023-08-24T08:33:58;8.73;;;4.22;;
39502;SDS011;26970;49.900;10.774;2023-08-24T08:36:24;8.70;;;4.18;;
39502;SDS011;26970;49.900;10.774;2023-08-24T08:38:49;6.07;;;4.07;;
39502;SDS011;26970;49.900;10.774;2023-08-24T08:41:15;5.88;;;4.00;;
39502;SDS011;26970;49.900;10.774;2023-08-24T08:43:46;5.72;;;3.90;;
39502;SDS011;26970;49.900;10.774;2023-08-24T08:46:13;8.10;;;3.95;;
39502;SDS011;26970;49.900;10.774;2023-08-24T08:48:41;9.90;;;4.15;;
39502;SDS011;26970;49.900;10.774;2023-08-24T08:51:07;5.85;;;4.20;;
39502;SDS011;26970;49.900;10.774;2023-08-24T08:53:34;8.18;;;4.30;;
39502;SDS011;26970;49.900;10.774;2023-08-24T08:56:00;6.22;;;3.97;;
39502;SDS011;26970;49.900;10.774;2023-08-24T08:58:29;7.38;;;4.05;;
39502;SDS011;26970;49.900;10.774;2023-08-24T09:00:56;6.22;;;3.70;;
39502;SDS011;26970;49.900;10.774;2023-08-24T09:03:25;9.82;;;4.05;;
39502;SDS011;26970;49.900;10.774;2023-08-24T09:05:54;9.32;;;3.95;;
39502;SDS011;26970;49.900;10.774;2023-08-24T09:08:19;11.40;;;3.92;;
39502;SDS011;26970;49.900;10.774;2023-08-24T09:10:46;6.80;;;3.95;;
39502;SDS011;26970;49.900;10.774;2023-08-24T09:13:12;11.48;;;3.95;;
39502;SDS011;26970;49.900;10.774;2023-08-24T09:15:38;10.50;;;4.40;;
39502;SDS011;26970;49.900;10.774;2023-08-24T09:18:03;5.05;;;3.50;;
39502;SDS011;26970;49.900;10.774;2023-08-24T09:20:29;5.35;;;3.47;;
39502;SDS011;26970;49.900;10.774;2023-08-24T09:22:55;7.97;;;4.05;;
39502;SDS011;26970;49.900;10.774;2023-08-24T09:25:24;9.63;;;3.72;;
39502;SDS011;26970;49.900;10.774;2023-08-24T09:27:57;7.30;;;3.80;;
39502;SDS011;26970;49.900;10.774;2023-08-24T09:30:25;6.45;;;3.47;;
39502;SDS011;26970;49.900;10.774;2023-08-24T09:32:54;6.82;;;3.38;;
39502;SDS011;26970;49.900;10.774;2023-08-24T09:35:20;6.57;;;3.28;;
39502;SDS011;26970;49.900;10.774;2023-08-24T09:37:46;5.85;;;3.25;;
39502;SDS011;26970;49.900;10.774;2023-08-24T09:40:14;7.78;;;3.53;;
39502;SDS011;26970;49.900;10.774;2023-08-24T09:42:41;8.70;;;3.10;;
39502;SDS011;26970;49.900;10.774;2023-08-24T09:45:08;6.03;;;3.40;;
39502;SDS011;26970;49.900;10.774;2023-08-24T09:47:37;7.80;;;3.38;;
39502;SDS011;26970;49.900;10.774;2023-08-24T09:50:03;8.07;;;3.50;;
39502;SDS011;26970;49.900;10.774;2023-08-24T09:52:33;6.28;;;3.28;;
39502;SDS011;26970;49.900;10.774;2023-08-24T09:55:05;6.35;;;3.05;;
39502;SDS011;26970;49.900;10.774;2023-08-24T09:57:36;8.52;;;3.30;;
39502;SDS011;26970;49.900;10.774;2023-08-24T10:00:06;9.52;;;3.10;;
39502;SDS011;26970;49.900;10.774;2023-08-24T10:02:37;8.85;;;3.08;;
39502;SDS011;26970;49.900;10.774;2023-08-24T10:05:19;7.28;;;3.20;;
39502;SDS011;26970;49.900;10.774;2023-08-24T10:07:52;8.73;;;3.10;;
39502;SDS011;26970;49.900;10.774;2023-08-24T10:10:21;10.02;;;3.05;;
39502;SDS011;26970;49.900;10.774;2023-08-24T10:12:50;7.95;;;2.90;;
39502;SDS011;26970;49.900;10.774;2023-08-24T10:15:18;7.72;;;3.35;;
39502;SDS011;26970;49.900;10.774;2023-08-24T10:17:44;7.30;;;3.00;;
39502;SDS011;26970;49.900;10.774;2023-08-24T10:20:10;4.70;;;2.78;;
39502;SDS011;26970;49.900;10.774;2023-08-24T10:22:36;4.40;;;2.60;;
39502;SDS011;26970;49.900;10.774;2023-08-24T10:25:03;8.60;;;2.90;;
39502;SDS011;26970;49.900;10.774;2023-08-24T10:27:30;4.57;;;2.50;;
39502;SDS011;26970;49.900;10.774;2023-08-24T10:29:56;5.57;;;2.78;;
39502;SDS011;26970;49.900;10.774;2023-08-24T10:32:25;7.78;;;3.17;;
39502;SDS011;26970;49.900;10.774;2023-08-24T10:34:51;9.23;;;3.00;;
39502;SDS011;26970;49.900;10.774;2023-08-24T10:37:21;6.28;;;2.63;;
39502;SDS011;26970;49.900;10.774;2023-08-24T10:39:50;7.78;;;2.80;;
39502;SDS011;26970;49.900;10.774;2023-08-24T10:42:16;7.38;;;2.65;;
39502;SDS011;26970;49.900;10.774;2023-08-24T10:44:45;7.70;;;2.80;;
39502;SDS011;26970;49.900;10.774;2023-08-24T10:47:29;9.25;;;2.80;;
39502;SDS011;26970;49.900;10.774;2023-08-24T10:52:21;5.68;;;2.88;;
39502;SDS011;26970;49.900;10.774;2023-08-24T10:54:54;6.32;;;2.70;;
39502;SDS011;26970;49.900;10.774;2023-08-24T10:57:23;8.27;;;2.40;;
39502;SDS011;26970;49.900;10.774;2023-08-24T10:59:59;5.78;;;2.88;;
39502;SDS011;26970;49.900;10.774;2023-08-24T11:02:30;5.70;;;2.97;;
39502;SDS011;26970;49.900;10.774;2023-08-24T11:05:14;9.90;;;3.20;;
39502;SDS011;26970;49.900;10.774;2023-08-24T11:07:47;7.57;;;2.92;;
39502;SDS011;26970;49.900;10.774;2023-08-24T11:10:24;6.10;;;3.35;;
39502;SDS011;26970;49.900;10.774;2023-08-24T11:13:06;6.50;;;2.95;;
39502;SDS011;26970;49.900;10.774;2023-08-24T11:15:45;7.57;;;3.08;;
39502;SDS011;26970;49.900;10.774;2023-08-24T11:20:39;5.43;;;3.03;;
39502;SDS011;26970;49.900;10.774;2023-08-24T11:23:07;7.35;;;3.22;;
39502;SDS011;26970;49.900;10.774;2023-08-24T11:25:37;5.82;;;3.13;;
39502;SDS011;26970;49.900;10.774;2023-08-24T11:28:03;9.02;;;3.70;;
39502;SDS011;26970;49.900;10.774;2023-08-24T11:30:29;7.25;;;3.50;;
39502;SDS011;26970;49.900;10.774;2023-08-24T11:32:56;8.20;;;3.47;;
39502;SDS011;26970;49.900;10.774;2023-08-24T11:35:21;6.60;;;3.25;;
39502;SDS011;26970;49.900;10.774;2023-08-24T11:37:55;6.15;;;3.25;;
39502;SDS011;26970;49.900;10.774;2023-08-24T11:40:21;5.35;;;3.17;;
39502;SDS011;26970;49.900;10.774;2023-08-24T11:42:56;9.23;;;3.05;;
39502;SDS011;26970;49.900;10.774;2023-08-24T11:45:22;7.43;;;3.50;;
39502;SDS011;26970;49.900;10.774;2023-08-24T11:47:48;5.18;;;2.90;;
39502;SDS011;26970;49.900;10.774;2023-08-24T11:50:15;8.98;;;2.72;;
39502;SDS011;26970;49.900;10.774;2023-08-24T11:52:41;6.60;;;3.17;;
39502;SDS011;26970;49.900;10.774;2023-08-24T11:55:07;6.45;;;3.30;;
39502;SDS011;26970;49.900;10.774;2023-08-24T11:57:37;5.82;;;2.90;;
39502;SDS011;26970;49.900;10.774;2023-08-24T12:00:03;6.50;;;2.90;;
39502;SDS011;26970;49.900;10.774;2023-08-24T12:02:30;5.88;;;3.20;;
39502;SDS011;26970;49.900;10.774;2023-08-24T12:04:57;8.95;;;3.75;;
39502;SDS011;26970;49.900;10.774;2023-08-24T12:07:23;8.07;;;3.90;;
39502;SDS011;26970;49.900;10.774;2023-08-24T12:09:50;6.32;;;3.03;;
39502;SDS011;26970;49.900;10.774;2023-08-24T12:12:19;6.65;;;3.20;;
39502;SDS011;26970;49.900;10.774;2023-08-24T12:14:46;5.07;;;3.50;;
39502;SDS011;26970;49.900;10.774;2023-08-24T12:17:12;5.07;;;3.13;;
39502;SDS011;26970;49.900;10.774;2023-08-24T12:19:42;8.60;;;2.70;;
39502;SDS011;26970;49.900;10.774;2023-08-24T12:22:13;6.22;;;3.22;;
39502;SDS011;26970;49.900;10.774;2023-08-24T12:24:43;9.20;;;3.58;;
39502;SDS011;26970;49.900;10.774;2023-08-24T12:27:16;5.40;;;2.65;;
39502;SDS011;26970;49.900;10.774;2023-08-24T12:29:44;6.25;;;3.60;;
39502;SDS011;26970;49.900;10.774;2023-08-24T12:32:10;6.20;;;3.47;;
39502;SDS011;26970;49.900;10.774;2023-08-24T12:34:36;7.60;;;3.00;;
39502;SDS011;26970;49.900;10.774;2023-08-24T12:37:01;10.20;;;3.13;;
39502;SDS011;26970;49.900;10.774;2023-08-24T12:39:27;5.70;;;2.80;;
39502;SDS011;26970;49.900;10.774;2023-08-24T12:41:52;6.88;;;3.10;;
39502;SDS011;26970;49.900;10.774;2023-08-24T12:44:18;6.13;;;3.15;;
39502;SDS011;26970;49.900;10.774;2023-08-24T12:46:43;6.25;;;3.10;;
39502;SDS011;26970;49.900;10.774;2023-08-24T12:49:10;7.60;;;3.10;;
39502;SDS011;26970;49.900;10.774;2023-08-24T12:51:35;6.75;;;2.97;;
39502;SDS011;26970;49.900;10.774;2023-08-24T12:54:01;7.63;;;3.53;;
39502;SDS011;26970;49.900;10.774;2023-08-24T12:56:26;6.63;;;3.38;;
39502;SDS011;26970;49.900;10.774;2023-08-24T12:58:52;6.80;;;3.42;;
39502;SDS011;26970;49.900;10.774;2023-08-24T13:01:19;6.03;;;3.17;;
39502;SDS011;26970;49.900;10.774;2023-08-24T13:03:44;7.25;;;3.42;;
39502;SDS011;26970;49.900;10.774;2023-08-24T13:06:10;5.57;;;3.47;;
39502;SDS011;26970;49.900;10.774;2023-08-24T13:08:35;9.48;;;3.65;;
39502;SDS011;26970;49.900;10.774;2023-08-24T13:11:01;5.25;;;2.80;;
39502;SDS011;26970;49.900;10.774;2023-08-24T13:13:26;6.70;;;3.47;;
39502;SDS011;26970;49.900;10.774;2023-08-24T13:15:52;7.78;;;3.17;;
39502;SDS011;26970;49.900;10.774;2023-08-24T13:18:17;7.13;;;3.60;;
39502;SDS011;26970;49.900;10.774;2023-08-24T13:20:43;6.68;;;3.20;;
39502;SDS011;26970;49.900;10.774;2023-08-24T13:23:08;6.72;;;3.63;;
39502;SDS011;26970;49.900;10.774;2023-08-24T13:25:34;4.55;;;3.00;;
39502;SDS011;26970;49.900;10.774;2023-08-24T13:28:00;6.88;;;2.97;;
39502;SDS011;26970;49.900;10.774;2023-08-24T13:30:25;10.63;;;3.50;;
39502;SDS011;26970;49.900;10.774;2023-08-24T13:32:52;5.65;;;3.20;;
39502;SDS011;26970;49.900;10.774;2023-08-24T13:35:18;6.38;;;3.33;;
39502;SDS011;26970;49.900;10.774;2023-08-24T13:37:43;6.70;;;2.90;;
39502;SDS011;26970;49.900;10.774;2023-08-24T13:40:09;8.07;;;3.20;;
39502;SDS011;26970;49.900;10.774;2023-08-24T13:42:35;8.98;;;4.05;;
39502;SDS011;26970;49.900;10.774;2023-08-24T13:45:01;7.95;;;2.92;;
39502;SDS011;26970;49.900;10.774;2023-08-24T13:47:27;6.55;;;3.38;;
39502;SDS011;26970;49.900;10.774;2023-08-24T13:49:52;8.40;;;3.45;;
39502;SDS011;26970;49.900;10.774;2023-08-24T13:52:18;12.48;;;3.28;;
39502;SDS011;26970;49.900;10.774;2023-08-24T13:54:44;7.75;;;3.05;;
39502;SDS011;26970;49.900;10.774;2023-08-24T13:57:10;10.43;;;3.47;;
39502;SDS011;26970;49.900;10.774;2023-08-24T13:59:35;8.15;;;3.55;;
39502;SDS011;26970;49.900;10.774;2023-08-24T14:02:01;6.00;;;3.13;;
39502;SDS011;26970;49.900;10.774;2023-08-24T14:04:27;9.20;;;3.63;;
39502;SDS011;26970;49.900;10.774;2023-08-24T14:06:53;5.60;;;3.30;;
39502;SDS011;26970;49.900;10.774;2023-08-24T14:09:18;6.68;;;3.50;;
39502;SDS011;26970;49.900;10.774;2023-08-24T14:11:44;7.45;;;3.65;;
39502;SDS011;26970;49.900;10.774;2023-08-24T14:14:09;12.40;;;3.88;;
39502;SDS011;26970;49.900;10.774;2023-08-24T14:16:35;5.55;;;3.17;;
39502;SDS011;26970;49.900;10.774;2023-08-24T14:19:01;6.85;;;3.50;;
39502;SDS011;26970;49.900;10.774;2023-08-24T14:21:26;9.00;;;3.88;;
39502;SDS011;26970;49.900;10.774;2023-08-24T14:23:52;6.28;;;3.80;;
39502;SDS011;26970;49.900;10.774;2023-08-24T14:26:17;8.02;;;3.38;;
39502;SDS011;26970;49.900;10.774;2023-08-24T14:28:53;8.52;;;3.65;;
39502;SDS011;26970;49.900;10.774;2023-08-24T14:31:21;9.18;;;3.47;;
39502;SDS011;26970;49.900;10.774;2023-08-24T14:33:52;5.90;;;3.60;;
39502;SDS011;26970;49.900;10.774;2023-08-24T14:36:19;8.65;;;3.70;;
39502;SDS011;26970;49.900;10.774;2023-08-24T14:38:45;7.60;;;3.20;;
39502;SDS011;26970;49.900;10.774;2023-08-24T14:41:11;9.07;;;3.45;;